Time;durP1;ratioP1;P1;durP2;ratioP2;P2;SDS_P1;SDS_P2;PMS_P1;PMS_P2;Temp;Humidity;BMP_temperature;BMP_pressure;BME280_temperature;BME280_humidity;BME280_pressure;Samples;Min_cycle;Max_cycle;Signal;HPM_P1;HPM_P2
2021/06/30 00:02:20;;;;;;;1.73;1.10;;;;;;;;;;6171432;23;20288;-94
2021/06/30 00:05:27;;;;;;;2.88;1.45;;;;;;;;;;6154111;23;20184;-92
2021/06/30 00:08:33;;;;;;;2.10;1.10;;;;;;;;;;6153143;23;20177;-93
2021/06/30 00:11:38;;;;;;;2.38;1.00;;;;;;;;;;6157064;23;20177;-92
2021/06/30 00:14:46;;;;;;;4.85;1.20;;;;;;;;;;6155512;23;20172;-91
2021/06/30 00:17:51;;;;;;;1.90;1.40;;;;;;;;;;6180616;23;20219;-91
2021/06/30 00:20:58;;;;;;;3.90;1.17;;;;;;;;;;6182808;23;20217;-92
2021/06/30 00:24:05;;;;;;;3.58;1.33;;;;;;;;;;6183366;23;20171;-92
2021/06/30 00:27:10;;;;;;;4.65;1.13;;;;;;;;;;6186170;23;20223;-91
2021/06/30 00:30:16;;;;;;;6.05;1.25;;;;;;;;;;6184573;23;20176;-92
2021/06/30 00:33:23;;;;;;;2.92;1.23;;;;;;;;;;6184273;23;20164;-92
2021/06/30 00:36:30;;;;;;;2.42;1.13;;;;;;;;;;6186099;23;20179;-90
2021/06/30 00:39:35;;;;;;;2.65;1.30;;;;;;;;;;6185985;23;20190;-91
2021/06/30 00:42:42;;;;;;;5.22;1.30;;;;;;;;;;6185233;23;20172;-91
2021/06/30 00:45:49;;;;;;;3.50;1.23;;;;;;;;;;6186806;23;20183;-90
2021/06/30 00:48:55;;;;;;;2.53;1.48;;;;;;;;;;6186384;23;20176;-92
2021/06/30 00:52:02;;;;;;;4.03;1.30;;;;;;;;;;6185551;23;20199;-91
2021/06/30 00:55:08;;;;;;;3.08;1.30;;;;;;;;;;6186153;23;20196;-91
2021/06/30 00:58:15;;;;;;;1.85;1.30;;;;;;;;;;6185351;23;20258;-92
2021/06/30 01:01:21;;;;;;;7.80;1.65;;;;;;;;;;6185175;23;20237;-92
2021/06/30 01:04:27;;;;;;;3.60;1.95;;;;;;;;;;6185805;23;20612;-91
2021/06/30 01:07:34;;;;;;;4.00;1.90;;;;;;;;;;6186383;23;20207;-91
2021/06/30 01:10:39;;;;;;;4.32;1.67;;;;;;;;;;6185687;23;20196;-90
2021/06/30 01:13:47;;;;;;;5.47;1.48;;;;;;;;;;6185345;23;20171;-91
2021/06/30 01:16:52;;;;;;;3.58;1.63;;;;;;;;;;6184774;23;20258;-92
2021/06/30 01:19:58;;;;;;;7.57;1.60;;;;;;;;;;6184747;23;20220;-91
2021/06/30 01:23:06;;;;;;;6.13;1.75;;;;;;;;;;6186435;23;20196;-92
2021/06/30 01:26:13;;;;;;;3.38;1.45;;;;;;;;;;6187209;23;20204;-91
2021/06/30 01:29:21;;;;;;;5.25;1.25;;;;;;;;;;6203909;23;20223;-93
2021/06/30 01:32:27;;;;;;;6.47;1.50;;;;;;;;;;6185193;23;20176;-92
2021/06/30 01:35:32;;;;;;;5.80;1.67;;;;;;;;;;6185788;23;20186;-90
2021/06/30 01:38:39;;;;;;;6.88;1.50;;;;;;;;;;6185660;23;20184;-90
2021/06/30 01:41:44;;;;;;;7.47;1.80;;;;;;;;;;6185592;23;20181;-91
2021/06/30 01:44:49;;;;;;;2.95;1.48;;;;;;;;;;6184189;23;20192;-91
2021/06/30 01:47:55;;;;;;;5.68;1.70;;;;;;;;;;6183410;23;20175;-91
2021/06/30 01:51:00;;;;;;;6.00;1.70;;;;;;;;;;6184398;23;20167;-92
2021/06/30 01:54:11;;;;;;;4.40;1.55;;;;;;;;;;6183841;23;20284;-92
2021/06/30 01:57:16;;;;;;;3.92;1.65;;;;;;;;;;6182371;23;20176;-90
2021/06/30 02:00:22;;;;;;;3.92;1.83;;;;;;;;;;6182191;23;20172;-89
2021/06/30 02:03:27;;;;;;;3.50;1.77;;;;;;;;;;6183301;23;20172;-91
2021/06/30 02:06:37;;;;;;;4.07;2.08;;;;;;;;;;6182786;23;20318;-90
2021/06/30 02:09:43;;;;;;;5.43;2.00;;;;;;;;;;6182367;23;20170;-90
2021/06/30 02:12:49;;;;;;;5.88;1.77;;;;;;;;;;6181086;23;20188;-89
2021/06/30 02:15:55;;;;;;;3.53;1.90;;;;;;;;;;6182523;23;20167;-92
2021/06/30 02:19:04;;;;;;;4.70;2.35;;;;;;;;;;6182796;23;20251;-91
2021/06/30 02:22:10;;;;;;;4.57;2.00;;;;;;;;;;6185185;23;20155;-90
2021/06/30 02:25:18;;;;;;;3.20;2.17;;;;;;;;;;6183964;23;20172;-90
2021/06/30 02:28:23;;;;;;;3.78;2.28;;;;;;;;;;6182856;23;20169;-91
2021/06/30 02:31:29;;;;;;;4.70;2.60;;;;;;;;;;6182021;23;20188;-91
2021/06/30 02:34:34;;;;;;;5.40;2.60;;;;;;;;;;6180492;23;20216;-91
2021/06/30 02:37:39;;;;;;;10.00;2.60;;;;;;;;;;6181671;23;20155;-91
2021/06/30 02:40:45;;;;;;;5.25;2.42;;;;;;;;;;6181969;23;20204;-90
2021/06/30 02:43:50;;;;;;;6.13;2.67;;;;;;;;;;6181474;23;20183;-92
2021/06/30 02:46:56;;;;;;;7.50;2.13;;;;;;;;;;6181975;23;20598;-92
2021/06/30 02:50:01;;;;;;;7.93;2.85;;;;;;;;;;6179627;23;20160;-92
2021/06/30 02:53:06;;;;;;;4.57;2.92;;;;;;;;;;6180570;23;20155;-93
2021/06/30 02:56:13;;;;;;;5.57;3.05;;;;;;;;;;6197230;23;20164;-92
2021/06/30 02:59:18;;;;;;;9.25;3.30;;;;;;;;;;6178881;23;20272;-90
2021/06/30 03:02:23;;;;;;;9.63;3.25;;;;;;;;;;6180433;23;20171;-90
2021/06/30 03:05:28;;;;;;;8.52;3.00;;;;;;;;;;6179934;23;20167;-92
2021/06/30 03:08:33;;;;;;;5.85;3.00;;;;;;;;;;6181911;23;20179;-92
2021/06/30 03:11:41;;;;;;;9.02;3.22;;;;;;;;;;6182055;23;20204;-92
2021/06/30 03:14:46;;;;;;;6.22;3.03;;;;;;;;;;6182793;23;20473;-91
2021/06/30 03:17:52;;;;;;;10.00;3.42;;;;;;;;;;6183481;23;20183;-92
2021/06/30 03:20:57;;;;;;;4.60;3.28;;;;;;;;;;6184166;23;20172;-92
2021/06/30 03:24:02;;;;;;;7.28;3.40;;;;;;;;;;6182568;23;20164;-91
2021/06/30 03:27:09;;;;;;;8.40;3.25;;;;;;;;;;6181624;23;20155;-92
2021/06/30 03:30:14;;;;;;;9.55;3.60;;;;;;;;;;6182081;23;20154;-91
2021/06/30 03:33:20;;;;;;;4.53;3.20;;;;;;;;;;6184138;23;20164;-91
2021/06/30 03:36:25;;;;;;;11.32;3.45;;;;;;;;;;6185361;23;20241;-93
2021/06/30 03:39:30;;;;;;;7.68;3.30;;;;;;;;;;6184209;23;20391;-91
2021/06/30 03:42:37;;;;;;;10.05;3.42;;;;;;;;;;6183137;23;20191;-91
2021/06/30 03:45:42;;;;;;;6.07;3.33;;;;;;;;;;6183542;23;20164;-92
2021/06/30 03:48:47;;;;;;;6.38;3.30;;;;;;;;;;6184729;23;20164;-92
2021/06/30 03:51:52;;;;;;;7.82;3.53;;;;;;;;;;6184909;23;20171;-92
2021/06/30 03:54:57;;;;;;;7.03;3.30;;;;;;;;;;6183062;23;20192;-91
2021/06/30 03:58:03;;;;;;;10.15;3.33;;;;;;;;;;6183728;23;20234;-91
2021/06/30 04:01:10;;;;;;;9.40;3.55;;;;;;;;;;6183656;23;20171;-91
2021/06/30 04:04:21;;;;;;;11.40;3.65;;;;;;;;;;6183277;23;20168;-91
2021/06/30 04:07:26;;;;;;;7.47;3.42;;;;;;;;;;6182254;23;20238;-91
2021/06/30 04:10:31;;;;;;;8.45;3.25;;;;;;;;;;6183489;23;20180;-91
2021/06/30 04:13:38;;;;;;;9.13;3.05;;;;;;;;;;6182980;23;20212;-90
2021/06/30 04:16:44;;;;;;;9.23;3.67;;;;;;;;;;6184662;23;20238;-92
2021/06/30 04:19:48;;;;;;;9.52;3.80;;;;;;;;;;6183318;23;20191;-91
2021/06/30 04:22:54;;;;;;;8.20;3.60;;;;;;;;;;6184966;23;20187;-91
2021/06/30 04:25:59;;;;;;;7.43;4.18;;;;;;;;;;6183979;23;20176;-92
2021/06/30 04:29:08;;;;;;;10.50;3.95;;;;;;;;;;6183788;23;20223;-91
2021/06/30 04:32:13;;;;;;;11.38;3.83;;;;;;;;;;6182831;23;20287;-91
2021/06/30 04:35:18;;;;;;;8.02;3.75;;;;;;;;;;6183540;23;20183;-91
2021/06/30 04:38:25;;;;;;;9.63;3.67;;;;;;;;;;6185214;23;20247;-92
2021/06/30 04:41:30;;;;;;;5.82;3.58;;;;;;;;;;6184660;23;20176;-92
2021/06/30 04:44:37;;;;;;;6.70;3.40;;;;;;;;;;6188489;23;20180;-91
2021/06/30 05:41:39;;;;;;;4.72;2.97;;;;;;;;;;6149282;22;20584;31
2021/06/30 05:44:47;;;;;;;12.02;3.50;;;;;;;;;;6186274;23;20227;-91
2021/06/30 05:47:53;;;;;;;6.47;2.90;;;;;;;;;;6187204;23;20168;-93
2021/06/30 05:50:59;;;;;;;5.47;2.67;;;;;;;;;;6186754;23;20211;-90
2021/06/30 05:54:04;;;;;;;7.68;2.90;;;;;;;;;;6184698;23;20168;-91
2021/06/30 05:57:11;;;;;;;7.18;2.75;;;;;;;;;;6184004;23;20167;-91
2021/06/30 06:00:19;;;;;;;9.77;2.90;;;;;;;;;;6183204;23;20241;-91
2021/06/30 06:03:24;;;;;;;10.23;3.17;;;;;;;;;;6185386;23;20156;-93
2021/06/30 17:08:32;;;;;;;3.47;1.13;;;;;;;;;;6112779;23;20513;-90
2021/06/30 17:11:37;;;;;;;2.33;1.00;;;;;;;;;;6092855;23;20199;-91
2021/06/30 17:14:43;;;;;;;3.75;1.45;;;;;;;;;;6093301;23;20154;-90
2021/06/30 17:17:49;;;;;;;3.13;0.95;;;;;;;;;;6109163;23;20166;-90
2021/06/30 17:20:54;;;;;;;2.55;0.70;;;;;;;;;;6092928;23;20234;-89
2021/06/30 17:24:01;;;;;;;2.97;1.45;;;;;;;;;;6093966;23;20174;-89
2021/06/30 17:27:06;;;;;;;4.10;0.88;;;;;;;;;;6093195;23;20618;-89
2021/06/30 17:30:13;;;;;;;2.20;1.10;;;;;;;;;;6093522;23;20170;-89
2021/06/30 17:42:09;;;;;;;1.52;1.00;;;;;;;;;;6178151;22;20212;-88
2021/06/30 17:45:14;;;;;;;3.10;1.48;;;;;;;;;;6180461;23;20179;-89
2021/06/30 17:48:19;;;;;;;2.00;1.30;;;;;;;;;;6182291;22;20167;-89
2021/06/30 17:51:24;;;;;;;1.73;0.80;;;;;;;;;;6181636;22;20195;-91
2021/06/30 17:54:29;;;;;;;3.03;0.80;;;;;;;;;;6183553;22;20168;-91
2021/06/30 17:57:36;;;;;;;1.17;0.63;;;;;;;;;;6181800;23;20256;-91
2021/06/30 18:00:41;;;;;;;0.85;0.60;;;;;;;;;;6182129;23;20191;-92
2021/06/30 18:03:47;;;;;;;1.00;0.60;;;;;;;;;;6180881;23;20196;-89
2021/06/30 18:06:56;;;;;;;1.58;0.70;;;;;;;;;;6182826;22;20168;-89
2021/06/30 18:10:01;;;;;;;1.08;0.90;;;;;;;;;;6182464;23;20216;-90
2021/06/30 18:13:11;;;;;;;2.95;0.90;;;;;;;;;;6182263;22;20620;-89
2021/06/30 18:20:09;;;;;;;3.67;1.40;;;;;;;;;;6183788;23;20208;-91
2021/06/30 18:23:14;;;;;;;4.90;1.20;;;;;;;;;;6183031;22;20268;-90
2021/06/30 18:26:21;;;;;;;4.10;1.30;;;;;;;;;;6184645;23;20196;-90
2021/06/30 18:29:29;;;;;;;2.97;1.50;;;;;;;;;;6182488;23;20246;-90
2021/06/30 18:32:35;;;;;;;2.53;1.30;;;;;;;;;;6181718;23;20240;-90
2021/06/30 18:35:41;;;;;;;3.38;1.27;;;;;;;;;;6181595;23;20271;-89
2021/06/30 18:38:47;;;;;;;7.95;1.50;;;;;;;;;;6183280;22;20151;-90
2021/06/30 18:41:52;;;;;;;4.28;1.00;;;;;;;;;;6183154;22;20674;-91
2021/06/30 18:44:58;;;;;;;2.72;0.80;;;;;;;;;;6183631;23;20176;-91
2021/06/30 18:48:04;;;;;;;1.40;0.80;;;;;;;;;;6183642;23;20671;-91
2021/06/30 18:51:10;;;;;;;5.45;1.75;;;;;;;;;;6182463;23;20179;-89
2021/06/30 18:54:17;;;;;;;4.47;1.45;;;;;;;;;;6183044;22;20156;-91
2021/06/30 18:57:22;;;;;;;2.97;1.00;;;;;;;;;;6182667;22;20228;-89
2021/06/30 19:00:28;;;;;;;3.80;1.60;;;;;;;;;;6182630;23;20210;-91
2021/06/30 19:03:33;;;;;;;1.30;0.90;;;;;;;;;;6183404;23;20230;-88
2021/06/30 19:06:39;;;;;;;1.73;0.80;;;;;;;;;;6183252;23;20236;-90
2021/06/30 19:09:44;;;;;;;1.10;0.80;;;;;;;;;;6182399;23;20164;-91
2021/06/30 19:12:49;;;;;;;1.20;0.80;;;;;;;;;;6181171;22;20175;-91
2021/06/30 19:15:57;;;;;;;1.35;0.90;;;;;;;;;;6182356;23;20172;-91
2021/06/30 19:19:05;;;;;;;2.47;0.77;;;;;;;;;;6182506;23;20155;-90
2021/06/30 19:22:10;;;;;;;3.03;0.90;;;;;;;;;;6182250;23;20231;-91
2021/06/30 19:25:17;;;;;;;3.45;1.20;;;;;;;;;;6182471;22;20229;-90
2021/06/30 19:28:24;;;;;;;10.18;4.72;;;;;;;;;;6183410;22;20172;-89
2021/06/30 19:31:31;;;;;;;3.33;1.40;;;;;;;;;;6183165;23;20171;-91
2021/06/30 19:34:40;;;;;;;1.63;1.00;;;;;;;;;;6185000;23;20166;-90
2021/06/30 19:37:47;;;;;;;2.75;0.90;;;;;;;;;;6185942;23;20196;-89
2021/06/30 19:40:53;;;;;;;1.67;1.13;;;;;;;;;;6184215;23;20179;-91
2021/06/30 19:43:59;;;;;;;3.20;0.90;;;;;;;;;;6186436;23;20225;-91
2021/06/30 19:47:07;;;;;;;2.00;1.10;;;;;;;;;;6185637;23;20164;-90
2021/06/30 19:50:13;;;;;;;1.83;1.00;;;;;;;;;;6186481;23;20215;-92
2021/06/30 19:53:18;;;;;;;2.38;0.80;;;;;;;;;;6186782;23;20164;-90
2021/06/30 19:56:24;;;;;;;4.40;1.00;;;;;;;;;;6185821;23;20171;-89
2021/06/30 19:59:29;;;;;;;2.97;1.40;;;;;;;;;;6186721;22;20163;-88
2021/06/30 20:02:36;;;;;;;4.10;1.20;;;;;;;;;;6185103;22;20175;-91
2021/06/30 20:05:42;;;;;;;2.28;1.20;;;;;;;;;;6185548;22;20201;-91
2021/06/30 20:08:47;;;;;;;4.15;1.02;;;;;;;;;;6185925;23;20168;-91
2021/06/30 20:11:53;;;;;;;4.40;1.25;;;;;;;;;;6186005;23;20168;-91
2021/06/30 20:14:58;;;;;;;3.92;1.13;;;;;;;;;;6185014;23;20167;-90
2021/06/30 20:18:05;;;;;;;1.85;1.20;;;;;;;;;;6203615;22;20203;-93
2021/06/30 20:21:10;;;;;;;7.90;2.25;;;;;;;;;;6185686;22;20271;-91
2021/06/30 20:24:16;;;;;;;5.25;2.10;;;;;;;;;;6185529;23;20168;-92
2021/06/30 20:27:21;;;;;;;2.25;1.60;;;;;;;;;;6185449;23;20248;-91
2021/06/30 20:30:26;;;;;;;8.13;1.67;;;;;;;;;;6185069;23;20164;-90
2021/06/30 20:33:33;;;;;;;5.00;1.60;;;;;;;;;;6183939;23;20188;-91
2021/06/30 20:36:38;;;;;;;3.38;1.38;;;;;;;;;;6186889;22;20211;-92
2021/06/30 20:39:44;;;;;;;2.88;1.30;;;;;;;;;;6185875;23;20627;-91
2021/06/30 20:42:51;;;;;;;3.28;1.60;;;;;;;;;;6186556;23;20676;-90
2021/06/30 20:45:56;;;;;;;4.35;1.50;;;;;;;;;;6189297;23;20203;-91
2021/06/30 20:49:05;;;;;;;7.03;1.70;;;;;;;;;;6187630;22;20155;-89
2021/06/30 20:52:11;;;;;;;6.00;1.50;;;;;;;;;;6190793;23;20273;-91
2021/06/30 20:55:16;;;;;;;7.88;2.25;;;;;;;;;;6187994;23;20212;-91
2021/06/30 20:58:22;;;;;;;2.10;1.30;;;;;;;;;;6189568;23;20201;-92
2021/06/30 21:01:35;;;;;;;4.88;1.55;;;;;;;;;;6189141;22;20199;-90
2021/06/30 21:04:56;;;;;;;8.95;1.60;;;;;;;;;;6187743;22;20268;-91
2021/06/30 21:08:06;;;;;;;5.13;1.50;;;;;;;;;;6188151;23;20212;-90
2021/06/30 21:11:11;;;;;;;4.03;1.83;;;;;;;;;;6187946;23;20571;-91
2021/06/30 21:14:17;;;;;;;4.57;1.52;;;;;;;;;;6189130;23;20203;-91
2021/06/30 21:17:22;;;;;;;3.25;1.48;;;;;;;;;;6188274;22;20243;-92
2021/06/30 21:20:30;;;;;;;4.38;1.50;;;;;;;;;;6186914;23;20172;-92
2021/06/30 21:23:37;;;;;;;4.47;1.65;;;;;;;;;;6187009;23;20215;-91
2021/06/30 21:26:43;;;;;;;5.75;1.50;;;;;;;;;;6187272;23;20192;-92
2021/06/30 21:29:48;;;;;;;3.33;1.83;;;;;;;;;;6186958;23;20252;-91
2021/06/30 21:32:54;;;;;;;5.28;2.00;;;;;;;;;;6184930;23;20172;-90
2021/06/30 21:35:59;;;;;;;7.47;2.55;;;;;;;;;;6186215;22;20169;-91
2021/06/30 21:39:05;;;;;;;3.90;2.40;;;;;;;;;;6186733;22;20168;-91
2021/06/30 21:42:10;;;;;;;3.45;2.40;;;;;;;;;;6186618;23;20214;-90
2021/06/30 21:45:16;;;;;;;4.32;2.40;;;;;;;;;;6183174;22;20183;-91
2021/06/30 21:48:21;;;;;;;2.92;1.90;;;;;;;;;;6184204;23;20155;-89
2021/06/30 21:51:27;;;;;;;4.47;2.00;;;;;;;;;;6183629;23;20171;-90
2021/06/30 21:54:34;;;;;;;4.35;2.00;;;;;;;;;;6185001;23;20176;-90
2021/06/30 21:57:39;;;;;;;2.03;1.58;;;;;;;;;;6184687;22;20219;-90
2021/06/30 22:00:44;;;;;;;2.22;1.60;;;;;;;;;;6184504;23;20651;-91
2021/06/30 22:04:18;;;;;;;2.60;1.92;;;;;;;;;;6184700;22;20649;-91
2021/06/30 22:07:23;;;;;;;5.22;1.83;;;;;;;;;;6184106;22;20171;-91
2021/06/30 22:10:30;;;;;;;6.25;1.77;;;;;;;;;;6184477;23;20219;-91
2021/06/30 22:13:36;;;;;;;7.82;2.28;;;;;;;;;;6186821;23;20167;-92
2021/06/30 22:16:41;;;;;;;4.35;2.72;;;;;;;;;;6187389;23;20208;-92
2021/06/30 22:19:47;;;;;;;6.45;2.97;;;;;;;;;;6187050;22;20167;-91
2021/06/30 22:22:57;;;;;;;8.35;3.75;;;;;;;;;;6186549;22;20192;-91
2021/06/30 22:26:04;;;;;;;5.65;3.28;;;;;;;;;;6187168;23;20167;-90
2021/06/30 22:29:10;;;;;;;5.55;3.20;;;;;;;;;;6185733;22;20175;-91
2021/06/30 22:32:15;;;;;;;6.80;4.00;;;;;;;;;;6186447;22;20191;-91
2021/06/30 22:35:20;;;;;;;4.63;3.40;;;;;;;;;;6186685;23;20215;-92
2021/06/30 22:38:26;;;;;;;5.30;3.60;;;;;;;;;;6202945;23;20164;-91
2021/06/30 22:41:33;;;;;;;4.50;3.60;;;;;;;;;;6186851;23;20212;-91
2021/06/30 22:44:38;;;;;;;5.32;3.33;;;;;;;;;;6186385;23;20164;-91
2021/06/30 22:47:42;;;;;;;4.68;3.50;;;;;;;;;;6185266;23;20164;-91
2021/06/30 22:50:48;;;;;;;5.03;3.45;;;;;;;;;;6187730;22;20216;-90
2021/06/30 22:53:53;;;;;;;6.20;3.42;;;;;;;;;;6186234;22;20172;-90
2021/06/30 22:57:00;;;;;;;5.32;2.50;;;;;;;;;;6184607;23;20192;-91
2021/06/30 23:00:07;;;;;;;5.00;2.38;;;;;;;;;;6187261;22;20190;-89
2021/06/30 23:03:13;;;;;;;5.13;3.47;;;;;;;;;;6169216;22;20258;-90
2021/06/30 23:06:18;;;;;;;5.00;3.17;;;;;;;;;;6186127;23;20245;-91
2021/06/30 23:09:24;;;;;;;4.97;3.58;;;;;;;;;;6185263;23;20156;-92
2021/06/30 23:12:30;;;;;;;3.08;2.47;;;;;;;;;;6185830;22;20221;-91
2021/06/30 23:15:36;;;;;;;4.78;2.20;;;;;;;;;;6185214;22;20168;-89
2021/06/30 23:18:42;;;;;;;4.47;1.95;;;;;;;;;;6184743;22;20615;-90
2021/06/30 23:21:47;;;;;;;4.47;2.42;;;;;;;;;;6185642;22;20203;-91
2021/06/30 23:24:52;;;;;;;3.50;1.85;;;;;;;;;;6185879;23;20168;-90
2021/06/30 23:28:01;;;;;;;4.28;2.10;;;;;;;;;;6185416;22;20167;-92
2021/06/30 23:31:07;;;;;;;7.28;2.65;;;;;;;;;;6186152;23;20168;-91
2021/06/30 23:34:13;;;;;;;5.07;2.53;;;;;;;;;;6185506;23;20175;-93
2021/06/30 23:37:18;;;;;;;4.72;2.38;;;;;;;;;;6186749;22;20167;-92
2021/06/30 23:40:23;;;;;;;4.18;2.00;;;;;;;;;;6185178;23;20171;-90
2021/06/30 23:43:30;;;;;;;4.38;2.60;;;;;;;;;;6183517;23;20172;-94
2021/06/30 23:46:35;;;;;;;5.47;2.38;;;;;;;;;;6185808;22;20225;-91
2021/06/30 23:49:40;;;;;;;4.28;2.30;;;;;;;;;;6185765;23;20220;-91
2021/06/30 23:52:45;;;;;;;5.25;2.30;;;;;;;;;;6186454;23;20167;-91
2021/06/30 23:55:50;;;;;;;3.70;2.08;;;;;;;;;;6168719;23;20216;-93
2021/06/30 23:58:57;;;;;;;4.13;2.13;;;;;;;;;;6171189;23;20679;-91
